sensor_id;sensor_type;location;lat;lon;timestamp;P1;durP1;ratioP1;P2;durP2;ratioP2
36259;SDS011;22296;50.824;5.644;2023-03-03T00:00:46;5.78;;;4.60;;
36259;SDS011;22296;50.824;5.644;2023-03-03T00:03:14;5.90;;;4.60;;
36259;SDS011;22296;50.824;5.644;2023-03-03T00:05:44;6.97;;;5.03;;
36259;SDS011;22296;50.824;5.644;2023-03-03T00:08:11;9.70;;;4.50;;
36259;SDS011;22296;50.824;5.644;2023-03-03T00:10:37;6.80;;;4.65;;
36259;SDS011;22296;50.824;5.644;2023-03-03T00:13:15;6.25;;;4.88;;
36259;SDS011;22296;50.824;5.644;2023-03-03T00:15:43;7.70;;;4.97;;
36259;SDS011;22296;50.824;5.644;2023-03-03T00:18:27;7.18;;;4.78;;
36259;SDS011;22296;50.824;5.644;2023-03-03T00:20:59;7.68;;;4.93;;
36259;SDS011;22296;50.824;5.644;2023-03-03T00:23:37;9.65;;;5.43;;
36259;SDS011;22296;50.824;5.644;2023-03-03T00:29:02;7.75;;;4.85;;
36259;SDS011;22296;50.824;5.644;2023-03-03T00:31:45;11.98;;;5.40;;
36259;SDS011;22296;50.824;5.644;2023-03-03T00:36:45;9.10;;;5.75;;
36259;SDS011;22296;50.824;5.644;2023-03-03T00:41:54;7.45;;;4.97;;
36259;SDS011;22296;50.824;5.644;2023-03-03T00:47:18;8.73;;;5.50;;
36259;SDS011;22296;50.824;5.644;2023-03-03T00:52:54;7.78;;;5.57;;
36259;SDS011;22296;50.824;5.644;2023-03-03T00:55:24;8.50;;;5.43;;
36259;SDS011;22296;50.824;5.644;2023-03-03T00:57:51;9.75;;;5.63;;
36259;SDS011;22296;50.824;5.644;2023-03-03T01:00:22;8.65;;;5.97;;
36259;SDS011;22296;50.824;5.644;2023-03-03T01:02:49;7.32;;;5.35;;
36259;SDS011;22296;50.824;5.644;2023-03-03T01:05:20;8.52;;;5.60;;
36259;SDS011;22296;50.824;5.644;2023-03-03T01:07:47;7.65;;;5.30;;
36259;SDS011;22296;50.824;5.644;2023-03-03T01:10:14;8.10;;;5.57;;
36259;SDS011;22296;50.824;5.644;2023-03-03T01:12:41;7.82;;;5.18;;
36259;SDS011;22296;50.824;5.644;2023-03-03T01:15:08;6.55;;;5.15;;
36259;SDS011;22296;50.824;5.644;2023-03-03T01:17:36;8.57;;;5.35;;
36259;SDS011;22296;50.824;5.644;2023-03-03T01:20:10;8.90;;;6.20;;
36259;SDS011;22296;50.824;5.644;2023-03-03T01:22:39;9.18;;;5.80;;
36259;SDS011;22296;50.824;5.644;2023-03-03T01:25:08;7.97;;;6.05;;
36259;SDS011;22296;50.824;5.644;2023-03-03T01:27:36;7.80;;;5.47;;
36259;SDS011;22296;50.824;5.644;2023-03-03T01:30:05;8.25;;;5.47;;
36259;SDS011;22296;50.824;5.644;2023-03-03T01:32:33;7.55;;;5.70;;
36259;SDS011;22296;50.824;5.644;2023-03-03T01:34:59;9.82;;;5.40;;
36259;SDS011;22296;50.824;5.644;2023-03-03T01:37:26;6.78;;;5.22;;
36259;SDS011;22296;50.824;5.644;2023-03-03T01:39:53;8.48;;;5.63;;
36259;SDS011;22296;50.824;5.644;2023-03-03T01:42:20;8.07;;;5.45;;
36259;SDS011;22296;50.824;5.644;2023-03-03T01:44:48;8.40;;;5.68;;
36259;SDS011;22296;50.824;5.644;2023-03-03T01:47:16;7.45;;;5.93;;
36259;SDS011;22296;50.824;5.644;2023-03-03T01:54:56;8.00;;;5.43;;
36259;SDS011;22296;50.824;5.644;2023-03-03T01:57:29;7.38;;;5.65;;
36259;SDS011;22296;50.824;5.644;2023-03-03T02:00:01;7.90;;;5.28;;
36259;SDS011;22296;50.824;5.644;2023-03-03T02:02:37;8.27;;;5.63;;
36259;SDS011;22296;50.824;5.644;2023-03-03T02:05:06;7.47;;;5.83;;
36259;SDS011;22296;50.824;5.644;2023-03-03T02:07:34;8.85;;;6.43;;
36259;SDS011;22296;50.824;5.644;2023-03-03T02:10:05;7.68;;;5.68;;
36259;SDS011;22296;50.824;5.644;2023-03-03T02:12:39;8.48;;;6.30;;
36259;SDS011;22296;50.824;5.644;2023-03-03T02:15:25;9.48;;;6.30;;
36259;SDS011;22296;50.824;5.644;2023-03-03T02:17:55;9.45;;;6.60;;
36259;SDS011;22296;50.824;5.644;2023-03-03T02:23:06;9.80;;;7.25;;
36259;SDS011;22296;50.824;5.644;2023-03-03T02:28:28;10.13;;;6.88;;
36259;SDS011;22296;50.824;5.644;2023-03-03T02:31:02;11.13;;;7.45;;
36259;SDS011;22296;50.824;5.644;2023-03-03T02:33:31;12.30;;;7.60;;
36259;SDS011;22296;50.824;5.644;2023-03-03T02:35:58;9.98;;;6.90;;
36259;SDS011;22296;50.824;5.644;2023-03-03T02:38:29;11.50;;;7.55;;
36259;SDS011;22296;50.824;5.644;2023-03-03T02:43:35;11.48;;;7.78;;
36259;SDS011;22296;50.824;5.644;2023-03-03T02:48:38;11.88;;;8.00;;
36259;SDS011;22296;50.824;5.644;2023-03-03T02:51:05;11.82;;;8.32;;
36259;SDS011;22296;50.824;5.644;2023-03-03T02:53:32;11.13;;;7.88;;
36259;SDS011;22296;50.824;5.644;2023-03-03T02:55:59;13.30;;;8.93;;
36259;SDS011;22296;50.824;5.644;2023-03-03T02:58:26;13.13;;;8.90;;
36259;SDS011;22296;50.824;5.644;2023-03-03T03:00:53;12.18;;;8.73;;
36259;SDS011;22296;50.824;5.644;2023-03-03T03:03:21;12.47;;;9.27;;
36259;SDS011;22296;50.824;5.644;2023-03-03T03:05:48;13.15;;;8.85;;
36259;SDS011;22296;50.824;5.644;2023-03-03T03:08:18;12.88;;;9.32;;
36259;SDS011;22296;50.824;5.644;2023-03-03T03:10:45;15.85;;;9.45;;
36259;SDS011;22296;50.824;5.644;2023-03-03T03:13:12;14.00;;;9.82;;
36259;SDS011;22296;50.824;5.644;2023-03-03T03:15:40;17.23;;;10.05;;
36259;SDS011;22296;50.824;5.644;2023-03-03T03:18:07;16.55;;;10.23;;
36259;SDS011;22296;50.824;5.644;2023-03-03T03:20:37;14.75;;;9.98;;
36259;SDS011;22296;50.824;5.644;2023-03-03T03:23:06;15.10;;;9.98;;
36259;SDS011;22296;50.824;5.644;2023-03-03T03:25:33;15.65;;;10.38;;
36259;SDS011;22296;50.824;5.644;2023-03-03T03:28:00;16.35;;;10.82;;
36259;SDS011;22296;50.824;5.644;2023-03-03T03:30:27;14.98;;;10.73;;
36259;SDS011;22296;50.824;5.644;2023-03-03T03:32:54;15.63;;;11.05;;
36259;SDS011;22296;50.824;5.644;2023-03-03T03:35:21;18.15;;;12.13;;
36259;SDS011;22296;50.824;5.644;2023-03-03T03:37:48;16.98;;;11.13;;
36259;SDS011;22296;50.824;5.644;2023-03-03T03:40:15;16.63;;;11.40;;
36259;SDS011;22296;50.824;5.644;2023-03-03T03:42:42;18.63;;;11.77;;
36259;SDS011;22296;50.824;5.644;2023-03-03T03:45:09;17.63;;;12.00;;
36259;SDS011;22296;50.824;5.644;2023-03-03T03:47:44;19.08;;;12.32;;
36259;SDS011;22296;50.824;5.644;2023-03-03T03:50:12;18.92;;;12.40;;
36259;SDS011;22296;50.824;5.644;2023-03-03T03:52:40;19.52;;;12.70;;
36259;SDS011;22296;50.824;5.644;2023-03-03T03:55:09;19.92;;;11.80;;
36259;SDS011;22296;50.824;5.644;2023-03-03T03:57:38;18.95;;;13.38;;
36259;SDS011;22296;50.824;5.644;2023-03-03T04:00:05;18.15;;;11.93;;
36259;SDS011;22296;50.824;5.644;2023-03-03T04:02:39;18.15;;;12.15;;
36259;SDS011;22296;50.824;5.644;2023-03-03T04:05:09;19.55;;;12.75;;
36259;SDS011;22296;50.824;5.644;2023-03-03T04:07:36;20.88;;;13.32;;
36259;SDS011;22296;50.824;5.644;2023-03-03T04:10:03;20.02;;;12.90;;
36259;SDS011;22296;50.824;5.644;2023-03-03T04:12:31;22.25;;;13.43;;
36259;SDS011;22296;50.824;5.644;2023-03-03T04:15:11;21.25;;;13.45;;
36259;SDS011;22296;50.824;5.644;2023-03-03T04:17:41;20.42;;;13.65;;
36259;SDS011;22296;50.824;5.644;2023-03-03T04:20:09;22.15;;;13.93;;
36259;SDS011;22296;50.824;5.644;2023-03-03T04:22:40;20.92;;;13.60;;
36259;SDS011;22296;50.824;5.644;2023-03-03T04:25:08;21.50;;;14.10;;
36259;SDS011;22296;50.824;5.644;2023-03-03T04:27:41;22.77;;;14.00;;
36259;SDS011;22296;50.824;5.644;2023-03-03T04:30:10;22.20;;;14.00;;
36259;SDS011;22296;50.824;5.644;2023-03-03T04:32:38;23.77;;;14.95;;
36259;SDS011;22296;50.824;5.644;2023-03-03T04:35:08;24.27;;;14.77;;
36259;SDS011;22296;50.824;5.644;2023-03-03T04:37:38;21.08;;;14.13;;
36259;SDS011;22296;50.824;5.644;2023-03-03T04:40:06;23.05;;;14.45;;
36259;SDS011;22296;50.824;5.644;2023-03-03T04:42:36;23.92;;;14.55;;
36259;SDS011;22296;50.824;5.644;2023-03-03T04:45:05;24.38;;;14.65;;
36259;SDS011;22296;50.824;5.644;2023-03-03T04:47:33;22.85;;;14.30;;
36259;SDS011;22296;50.824;5.644;2023-03-03T04:50:00;25.58;;;15.15;;
36259;SDS011;22296;50.824;5.644;2023-03-03T04:52:29;26.48;;;15.68;;
36259;SDS011;22296;50.824;5.644;2023-03-03T04:54:56;24.58;;;14.48;;
36259;SDS011;22296;50.824;5.644;2023-03-03T04:57:24;25.60;;;15.10;;
36259;SDS011;22296;50.824;5.644;2023-03-03T04:59:52;26.80;;;15.35;;
36259;SDS011;22296;50.824;5.644;2023-03-03T05:02:19;26.02;;;15.60;;
36259;SDS011;22296;50.824;5.644;2023-03-03T05:04:46;25.65;;;15.65;;
36259;SDS011;22296;50.824;5.644;2023-03-03T05:07:13;24.20;;;15.30;;
36259;SDS011;22296;50.824;5.644;2023-03-03T05:09:40;24.88;;;15.80;;
36259;SDS011;22296;50.824;5.644;2023-03-03T05:12:07;27.00;;;15.52;;
36259;SDS011;22296;50.824;5.644;2023-03-03T05:14:34;28.48;;;16.52;;
36259;SDS011;22296;50.824;5.644;2023-03-03T05:17:01;24.52;;;15.80;;
36259;SDS011;22296;50.824;5.644;2023-03-03T05:19:28;25.25;;;15.13;;
36259;SDS011;22296;50.824;5.644;2023-03-03T05:21:55;24.40;;;15.25;;
36259;SDS011;22296;50.824;5.644;2023-03-03T05:24:23;26.63;;;16.25;;
36259;SDS011;22296;50.824;5.644;2023-03-03T05:26:49;25.42;;;15.27;;
36259;SDS011;22296;50.824;5.644;2023-03-03T05:29:16;23.58;;;14.82;;
36259;SDS011;22296;50.824;5.644;2023-03-03T05:31:43;24.05;;;15.27;;
36259;SDS011;22296;50.824;5.644;2023-03-03T05:34:11;23.88;;;15.02;;
36259;SDS011;22296;50.824;5.644;2023-03-03T05:36:37;24.95;;;15.60;;
36259;SDS011;22296;50.824;5.644;2023-03-03T05:39:04;27.35;;;16.63;;
36259;SDS011;22296;50.824;5.644;2023-03-03T05:41:31;25.35;;;15.50;;
36259;SDS011;22296;50.824;5.644;2023-03-03T05:43:58;24.20;;;15.43;;
36259;SDS011;22296;50.824;5.644;2023-03-03T05:46:24;25.70;;;15.05;;
36259;SDS011;22296;50.824;5.644;2023-03-03T05:48:51;24.42;;;16.02;;
36259;SDS011;22296;50.824;5.644;2023-03-03T05:51:18;28.33;;;16.00;;
36259;SDS011;22296;50.824;5.644;2023-03-03T05:53:45;26.08;;;16.10;;
36259;SDS011;22296;50.824;5.644;2023-03-03T05:56:12;24.98;;;15.70;;
36259;SDS011;22296;50.824;5.644;2023-03-03T05:58:38;23.42;;;15.07;;
36259;SDS011;22296;50.824;5.644;2023-03-03T06:01:05;23.77;;;14.88;;
36259;SDS011;22296;50.824;5.644;2023-03-03T06:03:32;24.48;;;15.23;;
36259;SDS011;22296;50.824;5.644;2023-03-03T06:05:58;24.60;;;15.13;;
36259;SDS011;22296;50.824;5.644;2023-03-03T06:08:25;27.98;;;15.93;;
36259;SDS011;22296;50.824;5.644;2023-03-03T06:10:52;26.15;;;15.73;;
36259;SDS011;22296;50.824;5.644;2023-03-03T06:13:19;22.70;;;14.02;;
36259;SDS011;22296;50.824;5.644;2023-03-03T06:15:46;24.88;;;16.33;;
36259;SDS011;22296;50.824;5.644;2023-03-03T06:18:13;22.70;;;14.85;;
36259;SDS011;22296;50.824;5.644;2023-03-03T06:20:39;23.50;;;15.02;;
36259;SDS011;22296;50.824;5.644;2023-03-03T06:23:06;25.58;;;15.25;;
36259;SDS011;22296;50.824;5.644;2023-03-03T06:25:33;24.88;;;15.68;;
36259;SDS011;22296;50.824;5.644;2023-03-03T06:28:01;22.73;;;14.43;;
36259;SDS011;22296;50.824;5.644;2023-03-03T06:30:29;24.95;;;15.75;;
36259;SDS011;22296;50.824;5.644;2023-03-03T06:32:56;21.80;;;14.50;;
36259;SDS011;22296;50.824;5.644;2023-03-03T06:35:23;24.75;;;15.63;;
36259;SDS011;22296;50.824;5.644;2023-03-03T06:37:50;21.25;;;13.73;;
36259;SDS011;22296;50.824;5.644;2023-03-03T06:40:17;23.73;;;14.95;;
36259;SDS011;22296;50.824;5.644;2023-03-03T06:42:44;25.60;;;14.98;;
36259;SDS011;22296;50.824;5.644;2023-03-03T06:45:11;22.23;;;14.02;;
36259;SDS011;22296;50.824;5.644;2023-03-03T06:47:38;23.95;;;15.10;;
36259;SDS011;22296;50.824;5.644;2023-03-03T06:50:06;22.60;;;14.18;;
36259;SDS011;22296;50.824;5.644;2023-03-03T06:52:35;23.33;;;13.80;;
36259;SDS011;22296;50.824;5.644;2023-03-03T06:55:09;21.95;;;14.27;;
36259;SDS011;22296;50.824;5.644;2023-03-03T06:57:39;23.23;;;13.63;;
36259;SDS011;22296;50.824;5.644;2023-03-03T07:05:27;22.48;;;13.48;;
36259;SDS011;22296;50.824;5.644;2023-03-03T07:07:55;21.23;;;13.38;;
36259;SDS011;22296;50.824;5.644;2023-03-03T07:10:24;22.85;;;13.88;;
36259;SDS011;22296;50.824;5.644;2023-03-03T07:12:53;21.77;;;13.23;;
36259;SDS011;22296;50.824;5.644;2023-03-03T07:15:23;21.10;;;13.40;;
36259;SDS011;22296;50.824;5.644;2023-03-03T07:18:01;22.13;;;13.57;;
36259;SDS011;22296;50.824;5.644;2023-03-03T07:23:33;22.10;;;13.30;;
36259;SDS011;22296;50.824;5.644;2023-03-03T07:26:11;21.23;;;12.90;;
36259;SDS011;22296;50.824;5.644;2023-03-03T07:28:55;21.35;;;12.75;;
36259;SDS011;22296;50.824;5.644;2023-03-03T07:31:41;20.92;;;12.73;;
36259;SDS011;22296;50.824;5.644;2023-03-03T07:36:46;21.38;;;12.95;;
36259;SDS011;22296;50.824;5.644;2023-03-03T07:42:19;17.92;;;11.50;;
36259;SDS011;22296;50.824;5.644;2023-03-03T07:44:51;21.15;;;12.95;;
36259;SDS011;22296;50.824;5.644;2023-03-03T07:47:27;20.20;;;12.52;;
36259;SDS011;22296;50.824;5.644;2023-03-03T07:49:57;18.13;;;11.77;;
36259;SDS011;22296;50.824;5.644;2023-03-03T07:52:27;19.92;;;13.27;;
36259;SDS011;22296;50.824;5.644;2023-03-03T07:57:51;20.23;;;11.93;;
36259;SDS011;22296;50.824;5.644;2023-03-03T08:10:56;22.10;;;13.00;;
36259;SDS011;22296;50.824;5.644;2023-03-03T08:15:56;21.13;;;13.00;;
36259;SDS011;22296;50.824;5.644;2023-03-03T08:18:28;20.60;;;12.27;;
36259;SDS011;22296;50.824;5.644;2023-03-03T08:21:01;19.60;;;11.52;;
36259;SDS011;22296;50.824;5.644;2023-03-03T08:23:30;19.02;;;12.57;;
36259;SDS011;22296;50.824;5.644;2023-03-03T08:25:57;18.67;;;11.50;;
36259;SDS011;22296;50.824;5.644;2023-03-03T08:28:24;20.08;;;12.27;;
36259;SDS011;22296;50.824;5.644;2023-03-03T08:30:51;20.45;;;11.98;;
36259;SDS011;22296;50.824;5.644;2023-03-03T08:33:34;18.10;;;11.95;;
36259;SDS011;22296;50.824;5.644;2023-03-03T08:36:01;17.30;;;11.60;;
36259;SDS011;22296;50.824;5.644;2023-03-03T08:38:28;18.90;;;11.70;;
36259;SDS011;22296;50.824;5.644;2023-03-03T08:40:55;18.25;;;11.80;;
36259;SDS011;22296;50.824;5.644;2023-03-03T08:43:21;18.92;;;11.63;;
36259;SDS011;22296;50.824;5.644;2023-03-03T08:45:50;17.67;;;11.15;;
36259;SDS011;22296;50.824;5.644;2023-03-03T08:48:19;18.20;;;11.70;;
36259;SDS011;22296;50.824;5.644;2023-03-03T08:50:47;17.70;;;11.50;;
36259;SDS011;22296;50.824;5.644;2023-03-03T08:53:14;21.42;;;12.23;;
36259;SDS011;22296;50.824;5.644;2023-03-03T08:55:41;20.13;;;11.88;;
36259;SDS011;22296;50.824;5.644;2023-03-03T08:58:09;17.38;;;11.27;;
36259;SDS011;22296;50.824;5.644;2023-03-03T09:00:36;18.40;;;11.45;;
36259;SDS011;22296;50.824;5.644;2023-03-03T09:03:03;18.35;;;11.15;;
36259;SDS011;22296;50.824;5.644;2023-03-03T09:05:33;16.73;;;11.27;;
36259;SDS011;22296;50.824;5.644;2023-03-03T09:08:01;21.23;;;11.40;;
36259;SDS011;22296;50.824;5.644;2023-03-03T09:10:28;20.17;;;11.50;;
36259;SDS011;22296;50.824;5.644;2023-03-03T09:12:57;18.30;;;11.73;;
36259;SDS011;22296;50.824;5.644;2023-03-03T09:15:36;17.77;;;11.48;;
36259;SDS011;22296;50.824;5.644;2023-03-03T09:20:38;19.08;;;11.45;;
36259;SDS011;22296;50.824;5.644;2023-03-03T09:25:51;16.38;;;11.13;;
36259;SDS011;22296;50.824;5.644;2023-03-03T09:30:50;18.48;;;12.13;;
36259;SDS011;22296;50.824;5.644;2023-03-03T09:33:22;18.42;;;11.25;;
36259;SDS011;22296;50.824;5.644;2023-03-03T09:38:55;17.33;;;10.40;;
36259;SDS011;22296;50.824;5.644;2023-03-03T09:47:38;15.98;;;9.85;;
36259;SDS011;22296;50.824;5.644;2023-03-03T09:53:26;17.80;;;10.40;;
36259;SDS011;22296;50.824;5.644;2023-03-03T09:56:17;17.08;;;10.18;;
36259;SDS011;22296;50.824;5.644;2023-03-03T10:01:35;17.92;;;10.85;;
36259;SDS011;22296;50.824;5.644;2023-03-03T10:07:23;16.35;;;9.85;;
36259;SDS011;22296;50.824;5.644;2023-03-03T10:10:10;18.35;;;9.98;;
36259;SDS011;22296;50.824;5.644;2023-03-03T10:12:43;16.58;;;9.35;;
36259;SDS011;22296;50.824;5.644;2023-03-03T10:29:25;18.15;;;10.60;;
36259;SDS011;22296;50.824;5.644;2023-03-03T10:34:59;14.70;;;9.20;;
36259;SDS011;22296;50.824;5.644;2023-03-03T10:40:31;16.58;;;10.10;;
36259;SDS011;22296;50.824;5.644;2023-03-03T10:48:52;17.45;;;9.93;;
36259;SDS011;22296;50.824;5.644;2023-03-03T11:00:40;14.40;;;8.82;;
36259;SDS011;22296;50.824;5.644;2023-03-03T11:05:57;16.00;;;9.35;;
36259;SDS011;22296;50.824;5.644;2023-03-03T11:08:45;14.52;;;9.07;;
36259;SDS011;22296;50.824;5.644;2023-03-03T11:11:34;16.23;;;10.00;;
36259;SDS011;22296;50.824;5.644;2023-03-03T11:16:59;14.25;;;8.60;;
36259;SDS011;22296;50.824;5.644;2023-03-03T11:22:48;14.50;;;9.27;;
36259;SDS011;22296;50.824;5.644;2023-03-03T11:25:37;13.02;;;8.38;;
36259;SDS011;22296;50.824;5.644;2023-03-03T11:33:41;17.27;;;9.68;;
36259;SDS011;22296;50.824;5.644;2023-03-03T11:36:22;17.17;;;8.82;;
36259;SDS011;22296;50.824;5.644;2023-03-03T11:39:09;17.80;;;8.95;;
36259;SDS011;22296;50.824;5.644;2023-03-03T11:41:41;15.32;;;9.18;;
36259;SDS011;22296;50.824;5.644;2023-03-03T11:44:10;14.77;;;9.07;;
36259;SDS011;22296;50.824;5.644;2023-03-03T11:52:04;14.38;;;8.68;;
36259;SDS011;22296;50.824;5.644;2023-03-03T11:57:25;15.20;;;8.93;;
36259;SDS011;22296;50.824;5.644;2023-03-03T12:11:00;12.88;;;8.27;;
36259;SDS011;22296;50.824;5.644;2023-03-03T12:18:47;14.25;;;8.68;;
36259;SDS011;22296;50.824;5.644;2023-03-03T12:21:27;14.00;;;8.52;;
36259;SDS011;22296;50.824;5.644;2023-03-03T12:26:38;16.27;;;9.63;;
36259;SDS011;22296;50.824;5.644;2023-03-03T12:29:26;14.85;;;9.27;;
36259;SDS011;22296;50.824;5.644;2023-03-03T12:34:58;14.32;;;8.82;;
36259;SDS011;22296;50.824;5.644;2023-03-03T12:37:51;16.58;;;8.95;;
36259;SDS011;22296;50.824;5.644;2023-03-03T12:40:25;14.07;;;8.77;;
36259;SDS011;22296;50.824;5.644;2023-03-03T12:48:39;14.80;;;8.52;;
36259;SDS011;22296;50.824;5.644;2023-03-03T13:04:57;17.00;;;9.63;;
36259;SDS011;22296;50.824;5.644;2023-03-03T13:15:59;14.02;;;8.63;;
36259;SDS011;22296;50.824;5.644;2023-03-03T13:21:25;14.27;;;8.85;;
36259;SDS011;22296;50.824;5.644;2023-03-03T13:26:54;15.00;;;9.23;;
36259;SDS011;22296;50.824;5.644;2023-03-03T13:29:30;13.88;;;9.27;;
36259;SDS011;22296;50.824;5.644;2023-03-03T13:35:06;14.23;;;8.63;;
36259;SDS011;22296;50.824;5.644;2023-03-03T13:37:40;15.35;;;8.77;;
36259;SDS011;22296;50.824;5.644;2023-03-03T13:42:46;12.13;;;7.82;;
36259;SDS011;22296;50.824;5.644;2023-03-03T13:45:24;14.40;;;9.18;;
36259;SDS011;22296;50.824;5.644;2023-03-03T13:50:43;13.05;;;8.70;;
36259;SDS011;22296;50.824;5.644;2023-03-03T13:58:52;10.90;;;7.70;;
36259;SDS011;22296;50.824;5.644;2023-03-03T14:07:24;12.38;;;7.70;;
36259;SDS011;22296;50.824;5.644;2023-03-03T14:10:03;12.55;;;7.55;;
36259;SDS011;22296;50.824;5.644;2023-03-03T14:12:46;11.68;;;7.72;;
36259;SDS011;22296;50.824;5.644;2023-03-03T14:15:25;11.90;;;7.22;;
36259;SDS011;22296;50.824;5.644;2023-03-03T14:20:53;12.00;;;7.88;;
36259;SDS011;22296;50.824;5.644;2023-03-03T14:23:32;10.65;;;7.90;;
36259;SDS011;22296;50.824;5.644;2023-03-03T14:31:17;10.35;;;6.90;;
36259;SDS011;22296;50.824;5.644;2023-03-03T14:33:56;12.55;;;7.00;;
36259;SDS011;22296;50.824;5.644;2023-03-03T14:36:41;12.05;;;7.07;;
36259;SDS011;22296;50.824;5.644;2023-03-03T14:42:04;11.50;;;6.97;;
36259;SDS011;22296;50.824;5.644;2023-03-03T14:44:49;12.27;;;7.45;;
36259;SDS011;22296;50.824;5.644;2023-03-03T14:49:55;9.82;;;6.35;;
36259;SDS011;22296;50.824;5.644;2023-03-03T14:52:26;11.35;;;6.85;;
36259;SDS011;22296;50.824;5.644;2023-03-03T14:54:56;11.23;;;7.25;;
36259;SDS011;22296;50.824;5.644;2023-03-03T15:02:42;10.13;;;6.75;;
36259;SDS011;22296;50.824;5.644;2023-03-03T15:07:52;11.23;;;6.85;;
36259;SDS011;22296;50.824;5.644;2023-03-03T15:10:33;10.55;;;6.32;;
36259;SDS011;22296;50.824;5.644;2023-03-03T15:13:09;10.55;;;6.93;;
36259;SDS011;22296;50.824;5.644;2023-03-03T15:15:36;11.60;;;6.53;;
36259;SDS011;22296;50.824;5.644;2023-03-03T15:18:26;9.07;;;6.28;;
36259;SDS011;22296;50.824;5.644;2023-03-03T15:21:04;10.68;;;6.50;;
36259;SDS011;22296;50.824;5.644;2023-03-03T15:26:22;8.25;;;6.05;;
36259;SDS011;22296;50.824;5.644;2023-03-03T15:31:34;9.23;;;5.88;;
36259;SDS011;22296;50.824;5.644;2023-03-03T15:36:51;8.68;;;5.95;;
36259;SDS011;22296;50.824;5.644;2023-03-03T15:45:29;8.45;;;5.75;;
36259;SDS011;22296;50.824;5.644;2023-03-03T15:50:54;9.10;;;5.82;;
36259;SDS011;22296;50.824;5.644;2023-03-03T15:53:28;9.32;;;6.10;;
36259;SDS011;22296;50.824;5.644;2023-03-03T16:04:00;8.70;;;5.50;;
36259;SDS011;22296;50.824;5.644;2023-03-03T16:06:46;8.32;;;5.60;;
36259;SDS011;22296;50.824;5.644;2023-03-03T16:15:10;7.68;;;5.28;;
36259;SDS011;22296;50.824;5.644;2023-03-03T16:36:39;10.18;;;4.90;;
36259;SDS011;22296;50.824;5.644;2023-03-03T16:39:14;8.95;;;5.13;;
36259;SDS011;22296;50.824;5.644;2023-03-03T16:44:48;8.60;;;4.80;;
36259;SDS011;22296;50.824;5.644;2023-03-03T16:58:40;8.93;;;4.82;;
36259;SDS011;22296;50.824;5.644;2023-03-03T17:01:11;7.32;;;4.70;;
36259;SDS011;22296;50.824;5.644;2023-03-03T17:04:13;7.90;;;5.28;;
36259;SDS011;22296;50.824;5.644;2023-03-03T17:06:58;6.75;;;4.47;;
36259;SDS011;22296;50.824;5.644;2023-03-03T17:15:38;6.78;;;4.63;;
36259;SDS011;22296;50.824;5.644;2023-03-03T17:18:35;7.25;;;4.68;;
36259;SDS011;22296;50.824;5.644;2023-03-03T17:21:11;7.68;;;4.63;;
36259;SDS011;22296;50.824;5.644;2023-03-03T17:29:32;7.40;;;4.43;;
36259;SDS011;22296;50.824;5.644;2023-03-03T17:32:14;7.05;;;4.28;;
36259;SDS011;22296;50.824;5.644;2023-03-03T17:42:58;5.85;;;4.10;;
36259;SDS011;22296;50.824;5.644;2023-03-03T17:45:32;7.28;;;4.60;;
36259;SDS011;22296;50.824;5.644;2023-03-03T17:56:58;6.35;;;4.55;;
36259;SDS011;22296;50.824;5.644;2023-03-03T18:02:40;6.88;;;4.30;;
36259;SDS011;22296;50.824;5.644;2023-03-03T18:08:32;6.13;;;4.05;;
36259;SDS011;22296;50.824;5.644;2023-03-03T18:13:56;6.95;;;4.65;;
36259;SDS011;22296;50.824;5.644;2023-03-03T18:19:20;5.85;;;3.97;;
36259;SDS011;22296;50.824;5.644;2023-03-03T18:35:23;5.60;;;3.88;;
36259;SDS011;22296;50.824;5.644;2023-03-03T18:37:51;7.13;;;4.18;;
36259;SDS011;22296;50.824;5.644;2023-03-03T18:40:29;7.18;;;4.35;;
36259;SDS011;22296;50.824;5.644;2023-03-03T18:48:03;7.13;;;4.35;;
36259;SDS011;22296;50.824;5.644;2023-03-03T18:50:41;5.43;;;3.95;;
36259;SDS011;22296;50.824;5.644;2023-03-03T18:55:40;7.32;;;4.55;;
36259;SDS011;22296;50.824;5.644;2023-03-03T19:03:26;5.53;;;4.25;;
36259;SDS011;22296;50.824;5.644;2023-03-03T19:05:57;5.63;;;4.35;;
36259;SDS011;22296;50.824;5.644;2023-03-03T19:08:27;7.33;;;4.50;;
36259;SDS011;22296;50.824;5.644;2023-03-03T19:14:16;6.00;;;4.15;;
36259;SDS011;22296;50.824;5.644;2023-03-03T19:16:55;6.07;;;4.28;;
36259;SDS011;22296;50.824;5.644;2023-03-03T19:19:24;7.55;;;4.38;;
36259;SDS011;22296;50.824;5.644;2023-03-03T19:22:18;5.97;;;4.15;;
36259;SDS011;22296;50.824;5.644;2023-03-03T19:27:34;5.72;;;4.10;;
36259;SDS011;22296;50.824;5.644;2023-03-03T19:30:15;5.32;;;4.35;;
36259;SDS011;22296;50.824;5.644;2023-03-03T19:38:33;6.18;;;3.88;;
36259;SDS011;22296;50.824;5.644;2023-03-03T19:44:25;6.35;;;4.15;;
36259;SDS011;22296;50.824;5.644;2023-03-03T20:01:06;6.03;;;4.40;;
36259;SDS011;22296;50.824;5.644;2023-03-03T20:04:04;6.38;;;4.43;;
36259;SDS011;22296;50.824;5.644;2023-03-03T20:06:55;6.40;;;4.35;;
36259;SDS011;22296;50.824;5.644;2023-03-03T20:17:50;5.22;;;3.92;;
36259;SDS011;22296;50.824;5.644;2023-03-03T20:35:21;5.30;;;4.10;;
36259;SDS011;22296;50.824;5.644;2023-03-03T20:54:10;6.65;;;4.63;;
36259;SDS011;22296;50.824;5.644;2023-03-03T21:02:18;8.45;;;4.60;;
36259;SDS011;22296;50.824;5.644;2023-03-03T21:04:46;7.85;;;4.97;;
36259;SDS011;22296;50.824;5.644;2023-03-03T21:07:33;6.28;;;4.32;;
36259;SDS011;22296;50.824;5.644;2023-03-03T21:10:10;10.60;;;5.03;;
36259;SDS011;22296;50.824;5.644;2023-03-03T21:12:41;7.78;;;4.72;;
36259;SDS011;22296;50.824;5.644;2023-03-03T21:15:28;6.55;;;4.70;;
36259;SDS011;22296;50.824;5.644;2023-03-03T21:17:57;8.45;;;5.25;;
36259;SDS011;22296;50.824;5.644;2023-03-03T21:23:01;6.55;;;4.50;;
36259;SDS011;22296;50.824;5.644;2023-03-03T21:33:55;7.07;;;4.75;;
36259;SDS011;22296;50.824;5.644;2023-03-03T21:39:17;7.20;;;4.70;;
36259;SDS011;22296;50.824;5.644;2023-03-03T21:42:04;7.22;;;4.85;;
36259;SDS011;22296;50.824;5.644;2023-03-03T21:44:37;7.85;;;4.95;;
36259;SDS011;22296;50.824;5.644;2023-03-03T21:47:13;9.83;;;5.80;;
36259;SDS011;22296;50.824;5.644;2023-03-03T21:49:42;7.95;;;5.40;;
36259;SDS011;22296;50.824;5.644;2023-03-03T21:52:13;9.00;;;5.13;;
36259;SDS011;22296;50.824;5.644;2023-03-03T21:54:42;6.88;;;4.93;;
36259;SDS011;22296;50.824;5.644;2023-03-03T21:57:09;9.05;;;5.65;;
36259;SDS011;22296;50.824;5.644;2023-03-03T21:59:37;6.97;;;4.78;;
36259;SDS011;22296;50.824;5.644;2023-03-03T22:02:04;9.85;;;5.47;;
36259;SDS011;22296;50.824;5.644;2023-03-03T22:04:32;9.50;;;5.50;;
36259;SDS011;22296;50.824;5.644;2023-03-03T22:06:59;8.95;;;5.25;;
36259;SDS011;22296;50.824;5.644;2023-03-03T22:09:26;9.90;;;5.60;;
36259;SDS011;22296;50.824;5.644;2023-03-03T22:11:53;7.82;;;5.40;;
36259;SDS011;22296;50.824;5.644;2023-03-03T22:14:20;10.10;;;6.10;;
36259;SDS011;22296;50.824;5.644;2023-03-03T22:16:47;9.73;;;5.82;;
36259;SDS011;22296;50.824;5.644;2023-03-03T22:19:14;10.63;;;5.63;;
36259;SDS011;22296;50.824;5.644;2023-03-03T22:21:40;7.38;;;5.15;;
36259;SDS011;22296;50.824;5.644;2023-03-03T22:24:07;10.30;;;6.07;;
36259;SDS011;22296;50.824;5.644;2023-03-03T22:26:34;13.32;;;6.38;;
36259;SDS011;22296;50.824;5.644;2023-03-03T22:29:01;10.77;;;5.60;;
36259;SDS011;22296;50.824;5.644;2023-03-03T22:31:28;10.73;;;6.18;;
36259;SDS011;22296;50.824;5.644;2023-03-03T22:33:55;10.18;;;6.60;;
36259;SDS011;22296;50.824;5.644;2023-03-03T22:36:21;15.15;;;6.40;;
36259;SDS011;22296;50.824;5.644;2023-03-03T22:38:48;9.07;;;5.85;;